Indian Creek Settlement, Indiana
Current Conditions -  °F | °C
As of 5:15 AM on Monday 22 Dec 2014 (Local Time) from KDCY Reporting Station
Overcast Overcast  
Wind Chill: 30°   Ceiling: 3000
Heat Index: 34°   Visibility: 10mi
Dew Point: 29°   Wind: 5mph
Humidity: 83%   Direction: 120°ESE
Pressure: 29.94"   Gusts: NA
Location:  38.7736°N, 87.3306°W
Report Text: KDCY 221115Z AUTO 12004KT 10SM OVC030 01/M01 A2994 RMK AO2 T00111015
Loading
Personal Weather Stations






























Interactive Weather Map New forecast layout! Learn more

10-Day Weather Forecast

Advertisements
Track Severe Weather on mobile